createdAt,value
2023-02-23T00:01:27.520Z,67.27
2023-02-23T00:03:56.764Z,67.03
2023-02-23T00:06:26.012Z,67.18
2023-02-23T00:08:54.590Z,66.89
2023-02-23T00:11:22.403Z,66.71
2023-02-23T00:13:50.741Z,66.55
2023-02-23T00:16:25.375Z,66.71
2023-02-23T00:18:53.914Z,67.03
2023-02-23T00:21:22.105Z,66.68
2023-02-23T00:23:55.974Z,66.58
2023-02-23T00:26:25.027Z,66.74
2023-02-23T00:28:53.990Z,66.35
2023-02-23T00:31:26.028Z,66.74
2023-02-23T00:33:57.825Z,66.52
2023-02-23T00:36:28.389Z,66.58
2023-02-23T00:38:57.761Z,66.38
2023-02-23T00:41:30.443Z,66.59
2023-02-23T00:43:59.491Z,66.63
2023-02-23T00:46:29.559Z,66.54
2023-02-23T00:48:58.808Z,66.74
2023-02-23T00:51:27.859Z,66.51
2023-02-23T00:53:55.439Z,66.58
2023-02-23T00:56:22.860Z,66.15
2023-02-23T00:58:50.208Z,66.78
2023-02-23T01:01:18.387Z,66.79
2023-02-23T01:03:46.464Z,66.53
2023-02-23T01:06:16.944Z,66.72
2023-02-23T01:08:49.217Z,66.58
2023-02-23T01:11:22.939Z,66.59
2023-02-23T01:13:53.389Z,66.59
2023-02-23T01:16:23.152Z,66.62
2023-02-23T01:18:50.135Z,66.64
2023-02-23T01:21:24.394Z,66.70
2023-02-23T01:23:52.612Z,66.83
2023-02-23T01:26:22.117Z,66.42
2023-02-23T01:28:54.980Z,66.39
2023-02-23T01:31:23.680Z,66.36
2023-02-23T01:33:59.832Z,66.60
2023-02-23T01:36:31.001Z,66.45
2023-02-23T01:39:00.267Z,66.45
2023-02-23T01:41:33.157Z,66.40
2023-02-23T01:44:09.385Z,66.38
2023-02-23T01:46:41.449Z,66.31
2023-02-23T01:49:15.608Z,66.56
2023-02-23T01:51:52.120Z,66.74
2023-02-23T01:54:24.902Z,66.63
2023-02-23T01:56:58.567Z,66.49
2023-02-23T01:59:35.313Z,66.28
2023-02-23T02:02:05.376Z,66.35
2023-02-23T02:04:45.525Z,66.69
2023-02-23T02:07:24.074Z,66.75
2023-02-23T02:10:13.241Z,66.79
2023-02-23T02:12:46.847Z,67.35
2023-02-23T02:15:17.855Z,66.99
2023-02-23T02:18:18.810Z,67.13
2023-02-23T02:20:55.224Z,67.25
2023-02-23T02:24:00.877Z,66.97
2023-02-23T02:26:49.583Z,67.05
2023-02-23T02:29:50.477Z,67.33
2023-02-23T02:32:37.420Z,67.17
2023-02-23T02:35:43.102Z,67.25
2023-02-23T02:38:28.650Z,67.29
2023-02-23T02:41:05.721Z,66.94
2023-02-23T02:43:55.171Z,66.74
2023-02-23T02:46:29.903Z,66.61
2023-02-23T02:49:06.903Z,66.55
2023-02-23T02:51:55.389Z,67.02
2023-02-23T02:54:57.159Z,66.59
2023-02-23T02:57:27.867Z,66.79
2023-02-23T03:00:17.083Z,66.89
2023-02-23T03:03:02.873Z,67.30
2023-02-23T03:06:09.573Z,66.83
2023-02-23T03:09:13.668Z,66.83
2023-02-23T03:12:09.982Z,66.76
2023-02-23T03:15:18.545Z,66.76
2023-02-23T03:18:08.193Z,67.07
2023-02-23T03:20:53.236Z,66.82
2023-02-23T03:23:41.406Z,66.99
2023-02-23T03:26:36.273Z,66.92
2023-02-23T03:29:37.209Z,66.91
2023-02-23T03:32:42.385Z,66.75
2023-02-23T03:35:33.346Z,66.71
2023-02-23T03:38:30.451Z,66.98
2023-02-23T03:41:18.765Z,66.75
2023-02-23T03:44:11.757Z,67.57
2023-02-23T03:47:00.037Z,67.22
2023-02-23T03:49:52.128Z,67.13
2023-02-23T03:52:42.880Z,67.11
2023-02-23T03:58:30.310Z,67.57
2023-02-23T04:01:20.292Z,67.21
2023-02-23T04:04:08.752Z,67.19
2023-02-23T04:06:58.240Z,67.61
2023-02-23T04:09:44.073Z,67.34
2023-02-23T04:12:29.706Z,67.49
2023-02-23T04:15:01.839Z,67.22
2023-02-23T04:17:30.118Z,67.25
2023-02-23T04:19:57.776Z,66.84
2023-02-23T04:22:25.352Z,67.08
2023-02-23T04:24:52.519Z,67.16
2023-02-23T04:27:19.829Z,67.12
2023-02-23T04:29:46.799Z,67.07
2023-02-23T04:32:17.590Z,67.12
2023-02-23T04:34:45.790Z,66.77
2023-02-23T04:37:13.986Z,66.89
2023-02-23T04:39:42.979Z,66.83
2023-02-23T04:42:10.671Z,67.12
2023-02-23T04:44:37.664Z,66.88
2023-02-23T04:47:04.648Z,67.28
2023-02-23T04:49:31.574Z,67.24
2023-02-23T04:51:58.697Z,67.00
2023-02-23T04:54:26.170Z,67.06
2023-02-23T04:56:53.166Z,66.81
2023-02-23T04:59:20.191Z,66.91
2023-02-23T05:01:47.172Z,67.27
2023-02-23T05:04:14.159Z,67.26
2023-02-23T05:06:43.036Z,66.93
2023-02-23T05:09:10.284Z,67.00
2023-02-23T05:11:37.735Z,67.02
2023-02-23T05:14:04.918Z,66.91
2023-02-23T05:16:32.691Z,67.54
2023-02-23T05:19:00.332Z,67.16
2023-02-23T05:21:27.312Z,67.26
2023-02-23T05:23:54.208Z,67.05
2023-02-23T05:26:21.188Z,67.41
2023-02-23T05:28:48.881Z,67.24
2023-02-23T05:31:16.509Z,67.32
2023-02-23T05:33:44.164Z,67.14
2023-02-23T05:36:13.670Z,67.17
2023-02-23T05:38:41.077Z,67.04
2023-02-23T05:41:09.650Z,67.26
2023-02-23T05:43:36.946Z,67.05
2023-02-23T05:46:14.777Z,66.98
2023-02-23T05:48:41.910Z,67.52
2023-02-23T05:51:11.212Z,67.37
2023-02-23T05:53:38.519Z,67.47
2023-02-23T05:56:07.532Z,66.94
2023-02-23T05:58:35.081Z,67.23
2023-02-23T06:01:02.075Z,67.40
2023-02-23T06:03:29.053Z,67.25
2023-02-23T06:05:57.962Z,67.44
2023-02-23T06:08:26.519Z,67.46
2023-02-23T06:10:53.606Z,67.26
2023-02-23T06:13:21.623Z,67.22
2023-02-23T06:15:49.718Z,67.18
2023-02-23T06:18:17.699Z,67.33
2023-02-23T06:20:46.089Z,67.30
2023-02-23T06:23:13.546Z,67.47
2023-02-23T06:25:41.076Z,68.05
2023-02-23T06:28:09.040Z,67.98
2023-02-23T06:30:39.875Z,67.85
2023-02-23T06:33:07.458Z,67.54
2023-02-23T06:35:35.221Z,67.54
2023-02-23T06:38:03.720Z,67.35
2023-02-23T06:40:30.911Z,67.48
2023-02-23T06:42:57.858Z,67.59
2023-02-23T06:45:24.718Z,67.47
2023-02-23T06:47:55.541Z,68.05
2023-02-23T06:50:22.757Z,68.53
2023-02-23T06:52:49.966Z,67.83
2023-02-23T06:55:17.532Z,67.43
2023-02-23T06:57:44.462Z,67.20
2023-02-23T07:00:15.281Z,67.38
2023-02-23T07:02:42.329Z,67.02
2023-02-23T07:05:10.051Z,67.05
2023-02-23T07:07:37.611Z,66.93
2023-02-23T07:10:06.114Z,66.88
2023-02-23T07:12:33.152Z,67.10
2023-02-23T07:15:00.130Z,66.79
2023-02-23T07:17:27.221Z,66.66
2023-02-23T07:19:54.168Z,67.01
2023-02-23T07:22:22.499Z,66.73
2023-02-23T07:24:49.512Z,66.34
2023-02-23T07:27:16.550Z,66.46
2023-02-23T07:29:43.457Z,66.60
2023-02-23T07:32:10.720Z,66.67
2023-02-23T07:34:37.967Z,66.58
2023-02-23T07:37:04.964Z,66.41
2023-02-23T07:39:32.036Z,66.25
2023-02-23T07:41:59.135Z,66.05
2023-02-23T07:44:26.045Z,65.87
2023-02-23T07:46:53.289Z,66.78
2023-02-23T07:49:20.679Z,65.98
2023-02-23T07:51:47.584Z,65.89
2023-02-23T07:54:15.141Z,65.73
2023-02-23T07:56:42.747Z,65.98
2023-02-23T07:59:09.909Z,66.31
2023-02-23T08:01:36.818Z,66.37
2023-02-23T08:04:03.905Z,66.29
2023-02-23T08:06:31.435Z,66.04
2023-02-23T08:09:01.813Z,66.10
2023-02-23T08:11:31.657Z,66.59
2023-02-23T08:14:00.375Z,66.48
2023-02-23T08:16:32.468Z,65.97
2023-02-23T08:19:00.660Z,65.63
2023-02-23T08:21:29.867Z,65.77
2023-02-23T08:23:58.297Z,65.47
2023-02-23T08:26:25.688Z,65.41
2023-02-23T08:28:54.412Z,65.50
2023-02-23T08:31:24.530Z,65.52
2023-02-23T08:33:52.594Z,65.08
2023-02-23T08:36:20.975Z,65.40
2023-02-23T08:38:48.680Z,65.27
2023-02-23T08:41:16.057Z,65.15
2023-02-23T08:43:44.025Z,64.99
2023-02-23T08:46:11.504Z,64.76
2023-02-23T08:48:40.578Z,64.64
2023-02-23T08:51:08.848Z,64.58
2023-02-23T08:53:36.614Z,65.07
2023-02-23T08:56:06.308Z,64.85
2023-02-23T08:58:34.766Z,64.74
2023-02-23T09:01:02.532Z,64.84
2023-02-23T09:03:30.836Z,64.64
2023-02-23T09:06:04.604Z,64.57
2023-02-23T09:08:31.614Z,64.45
2023-02-23T09:10:58.423Z,64.65
2023-02-23T09:13:25.619Z,64.30
2023-02-23T09:15:52.533Z,64.15
2023-02-23T09:18:19.516Z,64.11
2023-02-23T09:20:46.439Z,64.42
2023-02-23T09:23:13.305Z,64.40
2023-02-23T09:25:44.374Z,64.15
2023-02-23T09:28:12.676Z,64.00
2023-02-23T09:30:42.154Z,64.12
2023-02-23T09:33:09.986Z,63.72
2023-02-23T09:35:37.488Z,63.98
2023-02-23T09:38:06.604Z,63.48
2023-02-23T09:40:53.325Z,62.82
2023-02-23T09:43:41.173Z,62.34
2023-02-23T09:46:48.006Z,62.04
2023-02-23T09:49:21.865Z,61.70
2023-02-23T09:51:57.691Z,61.47
2023-02-23T09:54:29.821Z,61.69
2023-02-23T09:56:58.830Z,61.81
2023-02-23T09:59:26.240Z,61.51
2023-02-23T10:02:24.593Z,61.47
2023-02-23T10:05:01.026Z,61.31
2023-02-23T10:07:46.167Z,61.37
2023-02-23T10:10:21.445Z,61.55
2023-02-23T10:13:04.898Z,61.32
2023-02-23T10:15:50.148Z,61.06
2023-02-23T10:18:47.317Z,61.12
2023-02-23T10:21:40.286Z,60.27
2023-02-23T10:24:19.517Z,60.07
2023-02-23T10:26:49.788Z,59.40
2023-02-23T10:29:45.851Z,59.36
2023-02-23T10:32:32.850Z,59.74
2023-02-23T10:35:00.065Z,59.41
2023-02-23T10:37:27.606Z,59.48
2023-02-23T10:39:54.756Z,59.46
2023-02-23T10:42:31.979Z,59.03
2023-02-23T10:44:59.538Z,59.41
2023-02-23T10:47:30.641Z,59.27
2023-02-23T10:49:58.743Z,59.56
2023-02-23T10:52:28.549Z,59.12
2023-02-23T10:54:55.684Z,59.85
2023-02-23T10:57:30.196Z,60.18
2023-02-23T11:00:06.846Z,60.75
2023-02-23T11:02:36.585Z,60.54
2023-02-23T11:05:06.874Z,60.72
2023-02-23T11:07:34.673Z,60.27
2023-02-23T11:10:27.539Z,60.10
2023-02-23T11:12:54.518Z,60.30
2023-02-23T11:15:32.045Z,60.54
2023-02-23T11:18:07.060Z,60.84
2023-02-23T11:20:38.560Z,60.22
2023-02-23T11:23:19.028Z,60.33
2023-02-23T11:25:48.588Z,60.92
2023-02-23T11:28:30.369Z,60.60
2023-02-23T11:31:13.009Z,61.25
2023-02-23T11:33:40.656Z,61.53
2023-02-23T11:36:26.860Z,61.91
2023-02-23T11:39:24.827Z,61.77
2023-02-23T11:42:18.055Z,61.12
2023-02-23T11:45:03.258Z,60.79
2023-02-23T11:47:31.843Z,61.24
2023-02-23T11:49:59.689Z,60.71
2023-02-23T11:52:28.438Z,60.84
2023-02-23T11:55:00.178Z,60.95
2023-02-23T11:57:31.568Z,61.00
2023-02-23T12:00:00.680Z,61.27
2023-02-23T12:02:31.350Z,61.57
2023-02-23T12:05:01.606Z,61.62
2023-02-23T12:07:56.997Z,61.38
2023-02-23T12:10:26.836Z,63.30
2023-02-23T12:13:44.581Z,63.39
2023-02-23T12:16:22.585Z,63.96
2023-02-23T12:19:23.287Z,63.86
2023-02-23T12:22:13.388Z,64.66
2023-02-23T12:24:52.356Z,66.03
2023-02-23T12:27:41.806Z,66.88
2023-02-23T12:30:27.134Z,67.38
2023-02-23T12:33:09.095Z,67.29
2023-02-23T12:35:54.054Z,66.50
2023-02-23T12:38:49.532Z,67.50
2023-02-23T12:41:20.063Z,68.42
2023-02-23T12:44:15.357Z,68.60
2023-02-23T12:46:49.060Z,68.50
2023-02-23T12:49:46.377Z,67.91
2023-02-23T12:52:20.044Z,66.96
2023-02-23T12:54:47.365Z,65.96
2023-02-23T12:57:25.190Z,66.23
2023-02-23T13:00:31.006Z,66.12
2023-02-23T13:03:23.069Z,66.57
2023-02-23T13:06:30.568Z,66.79
2023-02-23T13:09:21.604Z,67.56
2023-02-23T13:12:06.928Z,67.00
2023-02-23T13:14:46.214Z,66.62
2023-02-23T13:17:33.394Z,67.06
2023-02-23T13:20:15.943Z,66.75
2023-02-23T13:23:32.346Z,66.88
2023-02-23T13:26:27.146Z,67.23
2023-02-23T13:29:04.678Z,67.09
2023-02-23T13:31:35.649Z,66.45
2023-02-23T13:34:05.444Z,65.96
2023-02-23T13:36:34.906Z,65.81
2023-02-23T13:39:29.233Z,65.54
2023-02-23T13:42:14.663Z,65.84
2023-02-23T13:45:18.961Z,66.28
2023-02-23T13:47:58.063Z,65.97
2023-02-23T13:50:36.029Z,64.90
2023-02-23T13:53:07.020Z,65.24
2023-02-23T13:55:49.889Z,65.38
2023-02-23T13:58:31.954Z,65.08
2023-02-23T14:01:14.809Z,65.48
2023-02-23T14:04:12.887Z,66.25
2023-02-23T14:06:50.445Z,66.04
2023-02-23T14:09:26.472Z,65.83
2023-02-23T14:12:19.476Z,66.91
2023-02-23T14:14:47.353Z,67.23
2023-02-23T14:17:14.176Z,67.28
2023-02-23T14:20:06.499Z,67.33
2023-02-23T14:22:37.184Z,66.95
2023-02-23T14:25:35.145Z,67.20
2023-02-23T14:28:06.815Z,66.97
2023-02-23T14:30:51.288Z,66.65
2023-02-23T14:33:49.259Z,66.66
2023-02-23T14:36:22.248Z,66.45
2023-02-23T14:39:04.118Z,66.39
2023-02-23T14:41:57.880Z,66.48
2023-02-23T14:44:35.586Z,66.67
2023-02-23T14:47:18.011Z,66.48
2023-02-23T14:49:50.182Z,66.18
2023-02-23T14:52:29.266Z,66.51
2023-02-23T14:55:11.588Z,66.99
2023-02-23T14:57:41.175Z,66.97
2023-02-23T15:00:08.986Z,67.57
2023-02-23T15:02:43.169Z,67.72
2023-02-23T15:05:23.045Z,67.20
2023-02-23T15:07:52.014Z,67.02
2023-02-23T15:10:26.355Z,67.29
2023-02-23T15:12:53.864Z,67.62
2023-02-23T15:15:24.435Z,67.42
2023-02-23T15:17:55.964Z,67.63
2023-02-23T15:20:28.934Z,67.97
2023-02-23T15:22:59.379Z,67.95
2023-02-23T15:25:38.643Z,68.11
2023-02-23T15:28:32.674Z,67.89
2023-02-23T15:31:01.751Z,68.12
2023-02-23T15:33:28.964Z,68.29
2023-02-23T15:36:15.585Z,68.70
2023-02-23T15:38:53.342Z,68.47
2023-02-23T15:41:32.558Z,68.67
2023-02-23T15:44:10.030Z,68.36
2023-02-23T15:46:37.658Z,68.27
2023-02-23T15:49:07.006Z,68.52
2023-02-23T15:51:44.676Z,68.42
2023-02-23T15:54:27.604Z,68.75
2023-02-23T15:57:02.589Z,68.90
2023-02-23T15:59:34.820Z,68.83
2023-02-23T16:02:03.195Z,68.03
2023-02-23T16:04:36.792Z,67.70
2023-02-23T16:07:18.255Z,67.87
2023-02-23T16:09:49.286Z,68.10
2023-02-23T16:12:33.432Z,68.24
2023-02-23T16:15:06.664Z,69.08
2023-02-23T16:17:46.437Z,68.93
2023-02-23T16:20:41.785Z,69.00
2023-02-23T16:23:33.374Z,69.10
2023-02-23T16:26:10.118Z,68.68
2023-02-23T16:28:43.312Z,68.97
2023-02-23T16:31:13.526Z,68.92
2023-02-23T16:33:44.666Z,69.15
2023-02-23T16:36:11.665Z,69.09
2023-02-23T16:38:39.966Z,69.20
2023-02-23T16:41:15.893Z,69.32
2023-02-23T16:43:42.917Z,69.57
2023-02-23T16:46:09.892Z,69.63
2023-02-23T16:48:36.922Z,70.24
2023-02-23T16:51:04.012Z,70.07
2023-02-23T16:53:30.983Z,70.07
2023-02-23T16:56:01.117Z,70.25
2023-02-23T16:58:30.760Z,70.34
2023-02-23T17:00:57.709Z,70.99
2023-02-23T17:03:27.681Z,70.45
2023-02-23T17:05:54.925Z,70.76
2023-02-23T17:08:22.078Z,70.87
2023-02-23T17:10:52.125Z,70.84
2023-02-23T17:13:24.795Z,71.01
2023-02-23T17:15:56.874Z,70.59
2023-02-23T17:18:28.793Z,69.82
2023-02-23T17:20:57.145Z,70.38
2023-02-23T17:23:27.164Z,70.45
2023-02-23T17:25:56.064Z,70.53
2023-02-23T17:28:23.063Z,70.39
2023-02-23T17:30:50.251Z,70.62
2023-02-23T17:33:17.670Z,70.73
2023-02-23T17:35:45.498Z,70.49
2023-02-23T17:38:12.502Z,70.54
2023-02-23T17:40:39.617Z,70.54
2023-02-23T17:43:10.517Z,70.61
2023-02-23T17:45:37.445Z,70.37
2023-02-23T17:48:04.521Z,70.52
2023-02-23T17:50:35.621Z,70.93
2023-02-23T17:53:05.947Z,70.81
2023-02-23T17:55:33.050Z,70.78
2023-02-23T17:58:00.032Z,70.68
2023-02-23T18:00:28.688Z,71.07
2023-02-23T18:02:55.674Z,71.17
2023-02-23T18:05:22.618Z,71.28
2023-02-23T18:07:49.563Z,71.47
2023-02-23T18:10:17.193Z,71.70
2023-02-23T18:12:44.550Z,71.67
2023-02-23T18:15:11.531Z,71.53
2023-02-23T18:17:38.369Z,72.04
2023-02-23T18:20:07.088Z,71.92
2023-02-23T18:22:34.104Z,72.37
2023-02-23T18:25:01.380Z,72.44
2023-02-23T18:27:28.282Z,72.27
2023-02-23T18:29:55.229Z,72.03
2023-02-23T18:32:22.378Z,72.03
2023-02-23T18:34:49.694Z,72.53
2023-02-23T18:37:25.682Z,72.77
2023-02-23T18:39:54.191Z,72.60
2023-02-23T18:42:21.203Z,72.23
2023-02-23T18:44:48.319Z,71.51
2023-02-23T18:47:15.321Z,71.48
2023-02-23T18:49:42.317Z,71.50
2023-02-23T18:52:12.015Z,71.84
2023-02-23T18:54:41.028Z,72.34
2023-02-23T18:57:08.094Z,72.22
2023-02-23T18:59:35.073Z,72.64
2023-02-23T19:02:02.021Z,72.80
2023-02-23T19:04:28.984Z,72.98
2023-02-23T19:06:55.908Z,73.17
2023-02-23T19:09:22.863Z,73.08
2023-02-23T19:11:50.817Z,73.36
2023-02-23T19:14:22.003Z,74.26
2023-02-23T19:16:51.283Z,74.54
2023-02-23T19:19:20.966Z,75.23
2023-02-23T19:21:47.941Z,76.10
2023-02-23T19:24:15.338Z,75.68
2023-02-23T19:26:42.297Z,75.99
2023-02-23T19:29:09.229Z,76.42
2023-02-23T19:31:36.919Z,76.55
2023-02-23T19:34:05.149Z,76.76
2023-02-23T19:36:33.930Z,76.57
2023-02-23T19:39:10.460Z,77.11
2023-02-23T19:41:39.605Z,78.57
2023-02-23T19:44:06.795Z,79.40
2023-02-23T19:46:35.085Z,79.67
2023-02-23T19:49:02.835Z,79.87
2023-02-23T19:51:30.372Z,79.52
2023-02-23T19:53:58.553Z,80.29
2023-02-23T19:56:28.049Z,80.12
2023-02-23T19:58:55.999Z,80.33
2023-02-23T20:01:27.649Z,80.01
2023-02-23T20:04:01.702Z,79.80
2023-02-23T20:06:34.533Z,79.80
2023-02-23T20:09:04.824Z,80.04
2023-02-23T20:11:33.049Z,79.43
2023-02-23T20:14:00.572Z,79.23
2023-02-23T20:16:29.630Z,78.89
2023-02-23T20:19:00.576Z,78.54
2023-02-23T20:21:30.061Z,78.30
2023-02-23T20:23:57.147Z,77.79
2023-02-23T20:26:26.825Z,77.85
2023-02-23T20:28:55.233Z,77.68
2023-02-23T20:31:29.015Z,77.40
2023-02-23T20:33:58.706Z,77.66
2023-02-23T20:36:26.700Z,77.31
2023-02-23T20:38:53.678Z,77.54
2023-02-23T20:41:21.653Z,77.56
2023-02-23T20:43:49.016Z,77.61
2023-02-23T20:46:16.992Z,77.41
2023-02-23T20:48:44.063Z,77.49
2023-02-23T20:51:14.410Z,77.24
2023-02-23T20:53:42.085Z,77.56
2023-02-23T20:56:10.140Z,77.36
2023-02-23T20:58:37.209Z,77.16
2023-02-23T21:01:06.769Z,77.42
2023-02-23T21:03:35.059Z,76.89
2023-02-23T21:06:02.021Z,77.21
2023-02-23T21:09:11.961Z,76.57
2023-02-23T21:11:46.072Z,76.32
2023-02-23T21:14:13.573Z,77.07
2023-02-23T21:16:46.459Z,76.63
2023-02-23T21:19:15.458Z,76.87
2023-02-23T21:21:45.591Z,76.24
2023-02-23T21:24:15.252Z,76.64
2023-02-23T21:26:42.736Z,76.49
2023-02-23T21:29:11.918Z,76.54
2023-02-23T21:31:40.062Z,76.43
2023-02-23T21:34:07.709Z,76.50
2023-02-23T21:36:35.334Z,76.38
2023-02-23T21:39:02.381Z,76.77
2023-02-23T21:41:33.855Z,76.38
2023-02-23T21:44:01.575Z,76.58
2023-02-23T21:46:28.791Z,76.50
2023-02-23T21:48:56.516Z,76.46
2023-02-23T21:51:23.553Z,76.36
2023-02-23T21:53:50.702Z,76.03
2023-02-23T21:56:22.562Z,76.29
2023-02-23T21:58:52.151Z,76.15
2023-02-23T22:01:31.493Z,76.18
2023-02-23T22:03:58.596Z,76.34
2023-02-23T22:06:28.357Z,76.05
2023-02-23T22:08:56.515Z,75.94
2023-02-23T22:11:26.092Z,76.08
2023-02-23T22:14:00.990Z,76.24
2023-02-23T22:16:31.453Z,76.43
2023-02-23T22:19:03.593Z,76.42
2023-02-23T22:21:35.958Z,77.18
2023-02-23T22:24:05.580Z,76.88
2023-02-23T22:26:37.595Z,76.67
2023-02-23T22:29:06.484Z,76.78
2023-02-23T22:31:34.237Z,76.97
2023-02-23T22:34:01.594Z,77.23
2023-02-23T22:36:29.205Z,77.11
2023-02-23T22:39:00.373Z,77.26
2023-02-23T22:41:29.805Z,77.03
2023-02-23T22:43:57.851Z,77.17
2023-02-23T22:46:25.379Z,77.32
2023-02-23T22:48:52.485Z,76.91
2023-02-23T22:51:20.327Z,76.63
2023-02-23T22:53:47.556Z,76.60
2023-02-23T22:56:14.466Z,76.89
2023-02-23T22:58:42.490Z,77.23
2023-02-23T23:01:12.066Z,77.48
2023-02-23T23:03:40.553Z,77.59
2023-02-23T23:06:13.110Z,77.43
2023-02-23T23:08:42.250Z,77.68
2023-02-23T23:11:12.629Z,77.62
2023-02-23T23:13:45.042Z,77.78
2023-02-23T23:16:25.498Z,78.27
2023-02-23T23:19:02.764Z,78.64
2023-02-23T23:21:32.261Z,78.32
2023-02-23T23:24:01.920Z,78.60
2023-02-23T23:26:29.733Z,78.55
2023-02-23T23:28:59.260Z,78.20
2023-02-23T23:31:29.393Z,78.36
2023-02-23T23:34:03.129Z,78.47
2023-02-23T23:36:37.315Z,78.74
2023-02-23T23:39:06.294Z,78.63
2023-02-23T23:41:35.492Z,78.69
2023-02-23T23:44:05.377Z,78.73
2023-02-23T23:46:38.706Z,78.52
2023-02-23T23:49:11.135Z,78.95
2023-02-23T23:51:47.884Z,78.35
2023-02-23T23:54:18.100Z,78.35
2023-02-23T23:56:46.040Z,78.57
2023-02-23T23:59:20.485Z,78.23
